createdAt,value
2018-03-15T00:03:01.306Z,14.94
2018-03-15T00:08:52.138Z,12.73
2018-03-15T00:14:42.969Z,15.14
2018-03-15T00:20:33.837Z,14.31
2018-03-15T00:26:24.691Z,13.79
2018-03-15T00:32:15.533Z,21.33
2018-03-15T00:38:06.387Z,10.6
2018-03-15T00:43:57.260Z,14.15
2018-03-15T00:49:48.114Z,18.21
2018-03-15T00:55:38.951Z,18.79
2018-03-15T01:01:29.788Z,15.68
2018-03-15T01:07:20.633Z,11.93
2018-03-15T01:13:11.499Z,11.01
2018-03-15T01:19:02.299Z,18.26
2018-03-15T01:24:53.167Z,14.49
2018-03-15T01:30:44.027Z,7.5
2018-03-15T01:36:34.883Z,11.06
2018-03-15T01:42:25.703Z,10.22
2018-03-15T01:48:16.614Z,13.47
2018-03-15T01:54:07.413Z,16.64
2018-03-15T01:59:58.269Z,16.91
2018-03-15T02:05:49.103Z,12.04
2018-03-15T02:11:39.939Z,12.48
2018-03-15T02:17:30.784Z,15.71
2018-03-15T02:23:21.632Z,15.13
2018-03-15T02:29:12.551Z,14.76
2018-03-15T02:35:03.338Z,13.01
2018-03-15T02:40:54.146Z,14.88
2018-03-15T02:46:45.026Z,13.43
2018-03-15T02:52:35.879Z,16.94
2018-03-15T02:58:26.693Z,16.3
2018-03-15T03:04:17.562Z,16.66
2018-03-15T03:10:08.583Z,15.15
2018-03-15T03:15:59.278Z,15.61
2018-03-15T03:21:50.129Z,15.51
2018-03-15T03:27:40.976Z,15.59
2018-03-15T03:33:31.791Z,14.04
2018-03-15T03:39:22.611Z,15.85
2018-03-15T03:45:13.446Z,9.1
2018-03-15T03:51:04.269Z,11.91
2018-03-15T03:56:55.169Z,12.93
2018-03-15T04:02:45.993Z,13.98
2018-03-15T04:08:36.858Z,15.44
2018-03-15T04:14:27.691Z,9.87
2018-03-15T04:20:18.488Z,11.98
2018-03-15T04:26:09.321Z,11.96
2018-03-15T04:32:00.231Z,8.83
2018-03-15T04:37:51.006Z,13.8
2018-03-15T04:43:41.898Z,12.05
2018-03-15T04:49:32.725Z,13.37
2018-03-15T04:55:23.527Z,17.99
2018-03-15T05:01:14.412Z,11.58
2018-03-15T05:07:05.283Z,15.12
2018-03-15T05:12:56.076Z,13.51
2018-03-15T05:18:46.901Z,11.76
2018-03-15T05:24:37.746Z,15.42
2018-03-15T05:30:28.613Z,17.3
2018-03-15T05:36:19.450Z,18.46
2018-03-15T05:42:10.277Z,19.3
2018-03-15T05:48:01.128Z,15.02
2018-03-15T05:53:51.979Z,14.91
2018-03-15T05:59:42.896Z,17.02
2018-03-15T06:05:33.678Z,12.17
2018-03-15T06:11:24.554Z,12.31
2018-03-15T06:17:15.397Z,13.11
2018-03-15T06:23:06.228Z,12.82
2018-03-15T06:28:57.064Z,10.79
2018-03-15T06:34:47.957Z,10.09
2018-03-15T06:40:38.810Z,17.5
2018-03-15T06:46:29.607Z,8.72
2018-03-15T06:52:20.465Z,19.59
2018-03-15T06:58:11.334Z,14.15
2018-03-15T07:04:02.149Z,14.07
2018-03-15T07:09:53.020Z,14.91
2018-03-15T07:15:43.832Z,13.18
2018-03-15T07:21:34.668Z,17
2018-03-15T07:27:25.526Z,18.19
2018-03-15T07:33:16.392Z,32.1
2018-03-15T07:39:07.205Z,31.82
2018-03-15T07:44:58.082Z,33.18
2018-03-15T07:50:48.926Z,34.94
2018-03-15T07:56:39.762Z,30.69
2018-03-15T08:02:30.589Z,38.64
2018-03-15T08:08:21.453Z,38.09
2018-03-15T08:14:12.315Z,41.34
2018-03-15T08:20:03.298Z,35.85
2018-03-15T08:25:53.980Z,36.53
2018-03-15T08:31:44.869Z,38.35
2018-03-15T08:37:35.718Z,31.35
2018-03-15T08:43:26.549Z,35.63
2018-03-15T08:49:17.379Z,44.72
2018-03-15T08:55:08.242Z,44.06
2018-03-15T09:00:59.075Z,58.19
2018-03-15T09:06:49.937Z,47.98
2018-03-15T09:12:40.766Z,37.21
2018-03-15T09:18:31.659Z,36.68
2018-03-15T09:24:22.462Z,35.44
2018-03-15T09:30:13.322Z,35.89
2018-03-15T09:36:04.191Z,37.32
2018-03-15T09:41:55.064Z,36.09
2018-03-15T09:47:45.859Z,35.61
2018-03-15T09:53:36.703Z,41.46
2018-03-15T09:59:27.606Z,43.97
2018-03-15T10:05:18.474Z,37.95
2018-03-15T10:11:09.326Z,38.49
2018-03-15T10:17:00.136Z,41.11
2018-03-15T10:22:51.048Z,36.21
2018-03-15T10:28:41.867Z,39.77
2018-03-15T10:34:32.719Z,31.34
2018-03-15T10:40:23.555Z,23.66
2018-03-15T10:46:14.480Z,22.7
2018-03-15T10:52:05.278Z,16.26
2018-03-15T10:57:56.197Z,19.83
2018-03-15T11:03:47.045Z,16.2
2018-03-15T11:09:37.891Z,18.8
2018-03-15T11:15:28.679Z,16.39
2018-03-15T11:21:19.581Z,18.39
2018-03-15T11:27:10.513Z,27.02
2018-03-15T11:33:01.316Z,22.52
2018-03-15T11:38:52.185Z,26.13
2018-03-15T11:44:42.992Z,25.36
2018-03-15T11:50:33.843Z,33.43
2018-03-15T11:56:24.691Z,40.25
2018-03-15T12:02:15.564Z,40.51
2018-03-15T12:08:06.423Z,43.96
2018-03-15T12:13:57.302Z,41.34
2018-03-15T12:19:48.109Z,50.45
2018-03-15T12:25:39.043Z,53.34
2018-03-15T12:31:29.884Z,62.51
2018-03-15T12:37:20.730Z,50.81
2018-03-15T12:43:11.576Z,45.58
2018-03-15T12:49:02.446Z,33.83
2018-03-15T12:54:53.294Z,31.94
2018-03-15T13:00:44.102Z,32.05
2018-03-15T13:06:34.997Z,58.23
2018-03-15T13:12:25.802Z,51.64
2018-03-15T13:18:16.673Z,46.15
2018-03-15T13:24:07.530Z,38.89
2018-03-15T13:29:58.372Z,45.63
2018-03-15T13:35:49.247Z,43.37
2018-03-15T13:41:40.155Z,50.11
2018-03-15T13:47:30.979Z,49.04
2018-03-15T13:53:21.796Z,48.72
2018-03-15T13:59:12.691Z,48.73
2018-03-15T14:05:03.578Z,59.2
2018-03-15T14:10:54.384Z,66.85
2018-03-15T14:16:45.259Z,63.15
2018-03-15T14:22:36.075Z,60.08
2018-03-15T14:28:26.986Z,71.55
2018-03-15T14:34:17.788Z,71.6
2018-03-15T14:40:08.716Z,55.56
2018-03-15T14:45:59.523Z,50.02
2018-03-15T14:51:50.371Z,68.01
2018-03-15T14:57:41.242Z,69.82
2018-03-15T15:03:32.102Z,54.81
2018-03-15T15:09:22.981Z,57.26
2018-03-15T15:15:13.870Z,43.46
2018-03-15T15:21:04.649Z,41.82
2018-03-15T15:26:55.494Z,36.51
2018-03-15T15:32:46.382Z,35.13
2018-03-15T15:38:37.197Z,28.45
2018-03-15T15:44:28.067Z,22.36
2018-03-15T15:50:18.902Z,19.86
2018-03-15T15:56:09.792Z,21.69
2018-03-15T16:02:00.642Z,20.42
2018-03-15T16:07:51.504Z,14.05
2018-03-15T16:13:42.326Z,19.5
2018-03-15T16:19:33.262Z,19.2
2018-03-15T16:25:24.032Z,17.35
2018-03-15T16:31:14.934Z,20.25
2018-03-15T16:37:05.757Z,13.61
2018-03-15T16:42:56.633Z,16.92
2018-03-15T16:48:47.457Z,16.51
2018-03-15T16:54:38.332Z,18.91
2018-03-15T17:00:29.174Z,22.3
2018-03-15T17:06:20.023Z,15.96
2018-03-15T17:12:10.931Z,16.42
2018-03-15T17:18:01.731Z,18.71
2018-03-15T17:23:52.590Z,14.34
2018-03-15T17:29:43.464Z,11.9
2018-03-15T17:35:34.290Z,19.79
2018-03-15T17:41:25.182Z,16.31
2018-03-15T17:47:16.027Z,19.76
2018-03-15T17:53:06.868Z,27.14
2018-03-15T17:58:57.713Z,23.55
2018-03-15T18:04:48.563Z,24.66
2018-03-15T18:10:39.432Z,20.32
2018-03-15T18:16:30.288Z,11.14
2018-03-15T18:22:21.111Z,16.05
2018-03-15T18:28:11.968Z,16.09
2018-03-15T18:34:02.894Z,12.52
2018-03-15T18:39:53.682Z,15.53
2018-03-15T18:45:44.509Z,16.6
2018-03-15T18:51:35.412Z,12.16
2018-03-15T18:57:26.241Z,10.46
2018-03-15T19:03:17.084Z,16.08
2018-03-15T19:09:07.923Z,13.31
2018-03-15T19:14:58.802Z,12.82
2018-03-15T19:20:49.641Z,18.22
2018-03-15T19:26:40.502Z,13.15
2018-03-15T19:32:31.323Z,9.77
2018-03-15T19:38:22.236Z,12.67
2018-03-15T19:44:13.050Z,9.52
2018-03-15T19:50:03.951Z,11.11
2018-03-15T19:55:54.771Z,16.67
2018-03-15T20:01:45.599Z,15.78
2018-03-15T20:07:36.466Z,15.76
2018-03-15T20:13:27.359Z,10.58
2018-03-15T20:19:18.168Z,8.19
2018-03-15T20:25:09.023Z,8.22
2018-03-15T20:30:59.868Z,10.48
2018-03-15T20:36:50.744Z,9.46
2018-03-15T20:42:41.575Z,9.52
2018-03-15T20:48:32.476Z,8.25
2018-03-15T20:54:23.302Z,7.95
2018-03-15T21:00:14.170Z,15.72
2018-03-15T21:06:05.025Z,9.85
2018-03-15T21:11:55.900Z,8.9
2018-03-15T21:17:46.759Z,11.41
2018-03-15T21:23:37.557Z,8.92
2018-03-15T21:29:28.418Z,10.71
2018-03-15T21:35:19.315Z,9.21
2018-03-15T21:41:10.124Z,9.85
2018-03-15T21:47:01.038Z,8.18
2018-03-15T21:52:51.821Z,8.51
2018-03-15T21:58:42.712Z,8.84
2018-03-15T22:04:33.552Z,10.55
2018-03-15T22:10:24.384Z,10.84
2018-03-15T22:16:15.237Z,8.15
2018-03-15T22:22:06.105Z,9.67
2018-03-15T22:27:56.985Z,7.08
2018-03-15T22:33:47.809Z,7.58
2018-03-15T22:39:38.699Z,5.54
2018-03-15T22:45:29.549Z,4.63
2018-03-15T22:51:20.386Z,5.72
2018-03-15T22:57:11.252Z,5.23
2018-03-15T23:03:02.169Z,5.61
2018-03-15T23:08:52.949Z,5.22
2018-03-15T23:14:43.783Z,4.98
2018-03-15T23:20:34.658Z,6.76
2018-03-15T23:26:25.500Z,5.05
2018-03-15T23:32:16.335Z,5.03
2018-03-15T23:38:07.309Z,3.85
2018-03-15T23:43:58.052Z,6.11
2018-03-15T23:49:49.004Z,5.31
2018-03-15T23:55:39.798Z,6.63
